createdAt,value
2022-12-28T00:02:14.840Z,5.31
2022-12-28T00:04:42.918Z,5.21
2022-12-28T00:07:11.100Z,5.08
2022-12-28T00:09:39.175Z,5.20
2022-12-28T00:12:09.014Z,5.26
2022-12-28T00:14:37.143Z,5.32
2022-12-28T00:17:05.222Z,5.02
2022-12-28T00:19:33.467Z,5.04
2022-12-28T00:22:01.893Z,4.89
2022-12-28T00:24:30.250Z,5.04
2022-12-28T00:26:58.333Z,4.88
2022-12-28T00:29:27.899Z,4.76
2022-12-28T00:31:56.348Z,4.88
2022-12-28T00:34:25.406Z,5.25
2022-12-28T00:37:11.290Z,5.16
2022-12-28T00:39:41.877Z,5.05
2022-12-28T00:42:10.323Z,5.00
2022-12-28T00:44:40.289Z,4.99
2022-12-28T00:47:09.252Z,4.68
2022-12-28T00:49:40.482Z,4.78
2022-12-28T00:52:08.551Z,4.50
2022-12-28T00:54:36.661Z,4.60
2022-12-28T00:57:04.933Z,4.87
2022-12-28T00:59:34.604Z,4.89
2022-12-28T01:02:04.239Z,5.24
2022-12-28T01:04:32.487Z,4.56
2022-12-28T01:07:00.602Z,4.96
2022-12-28T01:09:28.698Z,4.78
2022-12-28T01:11:56.774Z,4.54
2022-12-28T01:14:24.908Z,4.73
2022-12-28T01:16:53.233Z,4.38
2022-12-28T01:19:24.384Z,4.80
2022-12-28T01:21:53.105Z,4.37
2022-12-28T01:24:21.429Z,4.66
2022-12-28T01:26:49.504Z,4.49
2022-12-28T01:29:18.972Z,4.95
2022-12-28T01:31:47.279Z,4.72
2022-12-28T01:34:15.426Z,4.54
2022-12-28T01:36:48.691Z,4.55
2022-12-28T01:39:16.938Z,4.07
2022-12-28T01:41:45.071Z,4.53
2022-12-28T01:44:45.111Z,4.15
2022-12-28T01:47:19.853Z,4.35
2022-12-28T01:49:56.474Z,4.11
2022-12-28T01:52:31.154Z,4.59
2022-12-28T01:55:06.160Z,4.64
2022-12-28T01:57:39.108Z,5.05
2022-12-28T02:00:11.096Z,4.71
2022-12-28T02:02:51.268Z,4.87
2022-12-28T02:05:21.541Z,5.14
2022-12-28T02:07:56.426Z,5.08
2022-12-28T02:10:44.613Z,5.33
2022-12-28T02:13:15.993Z,5.20
2022-12-28T02:15:45.535Z,5.22
2022-12-28T02:18:15.704Z,5.27
2022-12-28T02:21:00.172Z,5.09
2022-12-28T02:23:43.569Z,4.99
2022-12-28T02:26:47.333Z,5.09
2022-12-28T02:29:33.295Z,5.20
2022-12-28T02:32:11.899Z,4.71
2022-12-28T02:34:47.317Z,4.74
2022-12-28T02:37:20.923Z,4.84
2022-12-28T02:39:54.028Z,4.84
2022-12-28T02:42:24.675Z,4.97
2022-12-28T02:45:11.516Z,4.87
2022-12-28T02:48:00.923Z,5.08
2022-12-28T02:50:40.215Z,5.09
2022-12-28T02:53:33.949Z,5.12
2022-12-28T02:56:16.253Z,5.22
2022-12-28T02:59:10.505Z,5.35
2022-12-28T03:02:07.394Z,4.98
2022-12-28T03:04:51.922Z,5.38
2022-12-28T03:07:47.628Z,5.64
2022-12-28T03:10:22.391Z,5.69
2022-12-28T03:12:56.795Z,5.43
2022-12-28T03:15:32.867Z,5.49
2022-12-28T03:18:26.849Z,5.27
2022-12-28T03:21:16.465Z,5.04
2022-12-28T03:24:05.250Z,5.33
2022-12-28T03:26:54.210Z,5.04
2022-12-28T03:29:43.177Z,5.28
2022-12-28T03:32:12.109Z,4.91
2022-12-28T03:34:42.090Z,4.67
2022-12-28T03:37:18.031Z,4.41
2022-12-28T03:39:52.138Z,4.56
2022-12-28T03:42:46.070Z,4.37
2022-12-28T03:45:46.213Z,4.38
2022-12-28T03:48:12.246Z,4.67
2022-12-28T03:50:45.252Z,4.71
2022-12-28T03:53:16.626Z,4.49
2022-12-28T03:55:45.029Z,4.74
2022-12-28T03:58:14.912Z,4.82
2022-12-28T04:00:43.144Z,4.66
2022-12-28T04:03:11.375Z,4.81
2022-12-28T04:05:39.526Z,4.68
2022-12-28T04:08:09.050Z,4.86
2022-12-28T04:10:37.492Z,4.68
2022-12-28T04:13:05.746Z,4.80
2022-12-28T04:15:57.298Z,5.02
2022-12-28T04:18:25.621Z,4.93
2022-12-28T04:20:54.142Z,4.71
2022-12-28T04:23:23.733Z,4.78
2022-12-28T04:26:00.545Z,4.70
2022-12-28T04:28:29.709Z,4.85
2022-12-28T04:31:22.767Z,4.73
2022-12-28T04:33:58.263Z,4.84
2022-12-28T04:36:26.919Z,4.64
2022-12-28T04:38:59.298Z,4.69
2022-12-28T04:41:27.447Z,4.66
2022-12-28T04:43:56.473Z,4.79
2022-12-28T04:46:25.229Z,4.90
2022-12-28T04:48:53.929Z,4.59
2022-12-28T04:51:24.171Z,4.70
2022-12-28T04:53:53.119Z,4.69
2022-12-28T04:56:23.932Z,4.60
2022-12-28T04:58:55.841Z,4.91
2022-12-28T05:01:24.317Z,4.83
2022-12-28T05:03:56.535Z,5.00
2022-12-28T05:06:27.852Z,4.87
2022-12-28T05:08:57.099Z,5.02
2022-12-28T05:11:28.858Z,4.81
2022-12-28T05:13:57.654Z,4.83
2022-12-28T05:16:27.542Z,5.18
2022-12-28T05:18:56.718Z,5.04
2022-12-28T05:21:26.258Z,5.06
2022-12-28T05:23:55.554Z,4.74
2022-12-28T05:26:29.042Z,5.13
2022-12-28T05:28:58.757Z,4.83
2022-12-28T05:31:27.865Z,5.05
2022-12-28T05:33:56.368Z,5.07
2022-12-28T05:36:26.726Z,5.08
2022-12-28T05:38:56.854Z,5.02
2022-12-28T05:41:28.417Z,5.05
2022-12-28T05:43:57.207Z,5.25
2022-12-28T05:46:27.330Z,5.40
2022-12-28T05:48:56.413Z,5.41
2022-12-28T05:51:27.013Z,5.32
2022-12-28T05:53:55.987Z,5.43
2022-12-28T05:56:25.921Z,5.40
2022-12-28T05:58:57.118Z,5.44
2022-12-28T06:01:27.186Z,5.40
2022-12-28T06:03:59.150Z,5.35
2022-12-28T06:06:27.695Z,5.22
2022-12-28T06:08:55.782Z,5.21
2022-12-28T06:11:26.239Z,4.89
2022-12-28T06:13:57.030Z,4.95
2022-12-28T06:16:27.288Z,4.94
2022-12-28T06:19:01.162Z,4.83
2022-12-28T06:21:31.007Z,4.82
2022-12-28T06:24:00.537Z,4.83
2022-12-28T06:26:30.267Z,4.71
2022-12-28T06:29:01.672Z,4.35
2022-12-28T06:31:32.020Z,4.34
2022-12-28T06:34:02.153Z,4.42
2022-12-28T06:36:32.215Z,4.46
2022-12-28T06:39:02.068Z,4.42
2022-12-28T06:41:30.812Z,4.56
2022-12-28T06:44:01.184Z,4.52
2022-12-28T06:46:31.561Z,4.39
2022-12-28T06:49:00.293Z,4.64
2022-12-28T06:51:30.137Z,4.60
2022-12-28T06:53:58.960Z,4.59
2022-12-28T06:56:29.181Z,4.69
2022-12-28T06:59:02.872Z,4.54
2022-12-28T07:01:36.248Z,4.50
2022-12-28T07:04:07.507Z,4.44
2022-12-28T07:06:38.316Z,4.46
2022-12-28T07:09:09.670Z,4.48
2022-12-28T07:11:38.305Z,4.42
2022-12-28T07:14:06.602Z,4.37
2022-12-28T07:19:03.373Z,4.65
2022-12-28T07:21:32.728Z,4.45
2022-12-28T07:24:00.963Z,4.52
2022-12-28T07:26:30.642Z,4.56
2022-12-28T07:29:00.646Z,4.65
2022-12-28T07:31:31.120Z,4.85
2022-12-28T07:34:01.581Z,4.98
2022-12-28T07:36:32.003Z,4.99
2022-12-28T07:39:01.193Z,4.98
2022-12-28T07:41:31.091Z,5.09
2022-12-28T07:44:00.049Z,5.12
2022-12-28T07:46:29.953Z,5.35
2022-12-28T07:48:58.496Z,5.35
2022-12-28T07:51:29.689Z,5.39
2022-12-28T07:53:58.967Z,5.33
2022-12-28T07:56:28.355Z,5.45
2022-12-28T07:58:58.510Z,5.61
2022-12-28T08:01:28.907Z,5.72
2022-12-28T08:04:00.512Z,5.61
2022-12-28T08:06:34.193Z,5.62
2022-12-28T08:09:02.919Z,5.33
2022-12-28T08:11:32.808Z,5.38
2022-12-28T08:14:01.907Z,5.61
2022-12-28T08:16:31.868Z,5.67
2022-12-28T08:19:00.482Z,5.57
2022-12-28T08:21:31.805Z,5.79
2022-12-28T08:24:01.063Z,5.48
2022-12-28T08:26:30.951Z,5.77
2022-12-28T08:29:01.379Z,6.06
2022-12-28T08:31:31.570Z,5.95
2022-12-28T08:34:01.650Z,6.23
2022-12-28T08:36:31.258Z,6.13
2022-12-28T08:38:59.812Z,6.28
2022-12-28T08:41:29.002Z,6.31
2022-12-28T08:43:58.121Z,6.33
2022-12-28T08:46:27.831Z,6.19
2022-12-28T08:48:57.743Z,6.42
2022-12-28T08:51:27.970Z,6.49
2022-12-28T08:53:57.474Z,6.79
2022-12-28T08:56:27.838Z,6.90
2022-12-28T08:58:57.003Z,7.12
2022-12-28T09:01:27.510Z,7.01
2022-12-28T09:04:02.360Z,7.13
2022-12-28T09:06:33.874Z,7.32
2022-12-28T09:09:06.806Z,7.39
2022-12-28T09:11:36.222Z,7.53
2022-12-28T09:14:05.760Z,7.51
2022-12-28T09:16:34.002Z,7.72
2022-12-28T09:19:04.178Z,7.69
2022-12-28T09:21:35.098Z,7.70
2022-12-28T09:24:05.390Z,7.52
2022-12-28T09:26:37.472Z,7.52
2022-12-28T09:29:08.790Z,7.53
2022-12-28T09:31:38.641Z,6.81
2022-12-28T09:36:56.095Z,7.36
2022-12-28T09:39:25.703Z,7.50
2022-12-28T09:41:57.025Z,7.30
2022-12-28T09:44:35.575Z,7.69
2022-12-28T09:47:12.647Z,7.82
2022-12-28T09:49:45.902Z,7.85
2022-12-28T09:52:28.154Z,7.83
2022-12-28T09:55:05.293Z,8.03
2022-12-28T09:57:38.807Z,7.78
2022-12-28T10:00:15.959Z,7.55
2022-12-28T10:02:49.253Z,7.75
2022-12-28T10:05:18.036Z,7.90
2022-12-28T10:07:46.150Z,7.78
2022-12-28T10:10:18.433Z,7.73
2022-12-28T10:12:47.197Z,7.60
2022-12-28T10:15:16.218Z,7.77
2022-12-28T10:17:45.146Z,8.12
2022-12-28T10:20:18.108Z,8.55
2022-12-28T10:22:50.327Z,8.49
2022-12-28T10:25:22.220Z,8.43
2022-12-28T10:27:50.862Z,7.76
2022-12-28T10:30:21.593Z,7.93
2022-12-28T10:32:55.481Z,8.28
2022-12-28T10:35:30.263Z,8.56
2022-12-28T10:38:04.591Z,8.73
2022-12-28T10:40:37.551Z,8.93
2022-12-28T10:43:10.735Z,7.86
2022-12-28T10:45:42.985Z,8.12
2022-12-28T10:48:22.836Z,8.24
2022-12-28T10:50:54.577Z,8.21
2022-12-28T10:53:29.709Z,8.19
2022-12-28T10:56:19.279Z,8.34
2022-12-28T10:58:48.726Z,8.41
2022-12-28T11:01:26.143Z,8.30
2022-12-28T11:04:04.965Z,8.53
2022-12-28T11:06:34.511Z,8.58
2022-12-28T11:09:17.123Z,8.10
2022-12-28T11:11:49.041Z,8.42
2022-12-28T11:14:26.617Z,8.44
2022-12-28T11:16:54.814Z,8.43
2022-12-28T11:19:24.907Z,8.48
2022-12-28T11:21:53.567Z,8.64
2022-12-28T11:24:29.025Z,9.09
2022-12-28T11:26:58.956Z,9.30
2022-12-28T11:29:27.027Z,8.98
2022-12-28T11:32:01.102Z,9.26
2022-12-28T11:34:31.067Z,9.36
2022-12-28T11:36:59.936Z,9.38
2022-12-28T11:39:34.277Z,9.28
2022-12-28T11:42:37.032Z,9.58
2022-12-28T11:44:53.708Z,9.82
2022-12-28T11:47:33.347Z,9.85
2022-12-28T11:50:47.185Z,9.63
2022-12-28T11:53:49.900Z,9.92
2022-12-28T11:56:19.047Z,9.89
2022-12-28T11:59:03.573Z,9.68
2022-12-28T12:01:59.838Z,9.63
2022-12-28T12:04:39.661Z,9.46
2022-12-28T12:07:31.227Z,9.68
2022-12-28T12:10:35.156Z,9.73
2022-12-28T12:13:40.726Z,9.89
2022-12-28T12:16:21.919Z,9.60
2022-12-28T12:18:54.185Z,9.35
2022-12-28T12:21:31.567Z,9.49
2022-12-28T12:24:06.843Z,9.77
2022-12-28T12:26:39.288Z,9.64
2022-12-28T12:29:15.806Z,10.10
2022-12-28T12:31:51.167Z,10.26
2022-12-28T12:34:25.076Z,9.93
2022-12-28T12:37:24.089Z,10.31
2022-12-28T12:40:14.915Z,10.43
2022-12-28T12:42:55.687Z,10.22
2022-12-28T12:45:33.694Z,10.18
2022-12-28T12:48:29.022Z,10.61
2022-12-28T12:51:16.940Z,11.01
2022-12-28T12:53:59.716Z,11.24
2022-12-28T12:56:41.582Z,10.95
2022-12-28T12:59:29.089Z,11.26
2022-12-28T13:02:04.811Z,11.21
2022-12-28T13:04:36.499Z,10.31
2022-12-28T13:07:07.594Z,10.07
2022-12-28T13:09:37.490Z,10.68
2022-12-28T13:12:15.670Z,10.85
2022-12-28T13:14:46.216Z,10.87
2022-12-28T13:17:19.593Z,10.51
2022-12-28T13:19:49.538Z,10.97
2022-12-28T13:22:29.080Z,10.74
2022-12-28T13:24:59.106Z,10.38
2022-12-28T13:27:32.719Z,10.37
2022-12-28T13:30:02.735Z,10.19
2022-12-28T13:32:37.754Z,10.43
2022-12-28T13:35:19.655Z,9.98
2022-12-28T13:38:00.782Z,10.44
2022-12-28T13:40:29.426Z,10.40
2022-12-28T13:43:18.332Z,10.42
2022-12-28T13:45:51.010Z,9.91
2022-12-28T13:48:19.648Z,10.27
2022-12-28T13:50:50.079Z,9.74
2022-12-28T13:53:23.235Z,9.58
2022-12-28T13:55:54.302Z,9.43
2022-12-28T13:58:28.568Z,9.46
2022-12-28T14:00:59.563Z,9.27
2022-12-28T14:03:28.607Z,9.15
2022-12-28T14:06:02.093Z,9.42
2022-12-28T14:08:35.004Z,9.75
2022-12-28T14:11:03.707Z,9.87
2022-12-28T14:13:32.891Z,9.93
2022-12-28T14:16:02.435Z,9.64
2022-12-28T14:18:33.708Z,9.68
2022-12-28T14:21:04.283Z,10.25
2022-12-28T14:23:34.203Z,9.83
2022-12-28T14:26:05.022Z,9.46
2022-12-28T14:28:37.398Z,9.65
2022-12-28T14:31:07.399Z,9.10
2022-12-28T14:33:38.444Z,9.07
2022-12-28T14:36:09.733Z,9.57
2022-12-28T14:38:42.890Z,9.46
2022-12-28T14:41:19.580Z,9.32
2022-12-28T14:43:54.150Z,9.18
2022-12-28T14:46:32.482Z,9.39
2022-12-28T14:49:00.998Z,9.01
2022-12-28T14:51:33.331Z,8.89
2022-12-28T14:54:20.799Z,8.76
2022-12-28T14:56:53.749Z,8.87
2022-12-28T14:59:27.485Z,8.76
2022-12-28T15:01:56.039Z,8.53
2022-12-28T15:04:35.753Z,8.61
2022-12-28T15:07:06.041Z,9.00
2022-12-28T15:09:34.341Z,8.79
2022-12-28T15:12:10.084Z,8.53
2022-12-28T15:14:38.565Z,8.56
2022-12-28T15:17:07.395Z,8.27
2022-12-28T15:19:35.564Z,8.22
2022-12-28T15:22:05.422Z,8.31
2022-12-28T15:24:34.683Z,8.26
2022-12-28T15:27:02.909Z,8.31
2022-12-28T15:32:19.318Z,8.23
2022-12-28T15:34:47.396Z,8.23
2022-12-28T15:37:16.958Z,8.84
2022-12-28T15:39:46.271Z,8.86
2022-12-28T15:42:14.372Z,8.68
2022-12-28T15:44:42.509Z,8.53
2022-12-28T15:47:10.693Z,8.54
2022-12-28T15:49:38.892Z,8.62
2022-12-28T15:52:07.096Z,8.49
2022-12-28T15:54:36.586Z,8.63
2022-12-28T15:57:04.881Z,8.42
2022-12-28T15:59:33.035Z,8.54
2022-12-28T16:02:01.463Z,8.61
2022-12-28T16:04:29.714Z,8.93
2022-12-28T16:06:57.791Z,8.92
2022-12-28T16:09:25.869Z,8.98
2022-12-28T16:11:55.564Z,8.68
2022-12-28T16:14:23.891Z,8.87
2022-12-28T16:16:52.527Z,8.79
2022-12-28T16:19:20.773Z,8.55
2022-12-28T16:21:51.325Z,8.63
2022-12-28T16:24:19.880Z,8.87
2022-12-28T16:26:48.334Z,8.73
2022-12-28T16:29:18.126Z,8.57
2022-12-28T16:31:46.301Z,8.54
2022-12-28T16:34:17.040Z,8.46
2022-12-28T16:36:47.364Z,8.59
2022-12-28T16:39:17.992Z,8.37
2022-12-28T16:41:46.491Z,8.32
2022-12-28T16:44:16.399Z,8.25
2022-12-28T16:46:46.013Z,8.25
2022-12-28T16:49:14.450Z,8.25
2022-12-28T16:51:45.283Z,8.06
2022-12-28T16:54:16.851Z,8.12
2022-12-28T16:56:45.259Z,8.15
2022-12-28T16:59:18.058Z,8.29
2022-12-28T17:01:48.016Z,8.14
2022-12-28T17:04:16.490Z,8.14
2022-12-28T17:06:46.593Z,8.09
2022-12-28T17:09:15.193Z,8.10
2022-12-28T17:11:43.473Z,8.10
2022-12-28T17:14:13.260Z,8.14
2022-12-28T17:16:41.768Z,8.20
2022-12-28T17:19:11.252Z,7.97
2022-12-28T17:21:39.565Z,8.15
2022-12-28T17:24:08.542Z,8.05
2022-12-28T17:26:36.662Z,7.85
2022-12-28T17:29:05.521Z,7.75
2022-12-28T17:31:33.657Z,7.80
2022-12-28T17:34:03.091Z,7.70
2022-12-28T17:36:32.577Z,7.70
2022-12-28T17:39:00.718Z,7.55
2022-12-28T17:41:29.190Z,7.70
2022-12-28T17:43:59.075Z,7.64
2022-12-28T17:46:29.038Z,7.59
2022-12-28T17:48:59.054Z,7.53
2022-12-28T17:51:29.277Z,7.58
2022-12-28T17:53:58.881Z,7.58
2022-12-28T17:56:27.876Z,7.79
2022-12-28T17:58:57.525Z,7.65
2022-12-28T18:01:26.262Z,7.71
2022-12-28T18:03:55.345Z,7.69
2022-12-28T18:06:24.006Z,7.58
2022-12-28T18:08:52.366Z,7.71
2022-12-28T18:11:22.058Z,7.72
2022-12-28T18:13:50.146Z,7.55
2022-12-28T18:16:21.304Z,7.64
2022-12-28T18:18:49.738Z,7.67
2022-12-28T18:21:22.023Z,7.48
2022-12-28T18:23:52.268Z,7.37
2022-12-28T18:26:23.715Z,7.04
2022-12-28T18:28:51.835Z,6.92
2022-12-28T18:31:20.739Z,7.00
2022-12-28T18:33:48.971Z,6.77
2022-12-28T18:36:18.391Z,7.16
2022-12-28T18:38:48.144Z,7.23
2022-12-28T18:41:18.848Z,7.30
2022-12-28T18:43:48.777Z,7.64
2022-12-28T18:46:16.954Z,7.65
2022-12-28T18:48:45.064Z,7.49
2022-12-28T18:51:14.832Z,7.07
2022-12-28T18:53:43.197Z,7.20
2022-12-28T18:56:13.558Z,7.02
2022-12-28T18:58:43.227Z,7.00
2022-12-28T19:04:03.696Z,7.17
2022-12-28T19:06:32.873Z,7.05
2022-12-28T19:09:01.692Z,7.33
2022-12-28T19:11:30.426Z,7.38
2022-12-28T19:13:58.646Z,7.28
2022-12-28T19:16:31.456Z,7.56
2022-12-28T19:19:00.417Z,7.52
2022-12-28T19:21:30.615Z,7.53
2022-12-28T19:24:00.746Z,7.55
2022-12-28T19:26:28.932Z,7.77
2022-12-28T19:29:01.358Z,7.90
2022-12-28T19:31:31.558Z,7.60
2022-12-28T19:33:59.753Z,7.88
2022-12-28T19:36:27.934Z,7.75
2022-12-28T19:38:56.791Z,7.88
2022-12-28T19:41:25.389Z,7.71
2022-12-28T19:43:53.528Z,7.84
2022-12-28T19:46:23.423Z,7.90
2022-12-28T19:48:54.860Z,7.86
2022-12-28T19:51:30.055Z,7.89
2022-12-28T19:53:59.058Z,7.75
2022-12-28T19:56:27.248Z,7.84
2022-12-28T19:59:01.182Z,7.67
2022-12-28T20:01:33.601Z,7.53
2022-12-28T20:04:08.793Z,7.37
2022-12-28T20:06:40.930Z,7.36
2022-12-28T20:09:08.995Z,7.48
2022-12-28T20:11:37.517Z,7.38
2022-12-28T20:14:06.524Z,7.17
2022-12-28T20:16:36.538Z,7.10
2022-12-28T20:19:08.652Z,7.39
2022-12-28T20:21:37.754Z,7.47
2022-12-28T20:24:07.190Z,7.35
2022-12-28T20:26:35.940Z,7.39
2022-12-28T20:29:05.019Z,7.49
2022-12-28T20:31:33.205Z,7.55
2022-12-28T20:34:01.758Z,7.41
2022-12-28T20:36:34.037Z,7.20
2022-12-28T20:39:02.893Z,7.21
2022-12-28T20:41:50.681Z,7.29
2022-12-28T20:44:23.919Z,7.36
2022-12-28T20:46:52.527Z,7.16
2022-12-28T20:49:20.618Z,7.03
2022-12-28T20:51:50.328Z,7.36
2022-12-28T20:54:19.530Z,7.32
2022-12-28T20:56:54.271Z,7.39
2022-12-28T20:59:24.803Z,7.25
2022-12-28T21:01:53.663Z,7.21
2022-12-28T21:04:24.094Z,7.32
2022-12-28T21:06:54.443Z,6.88
2022-12-28T21:09:23.003Z,7.01
2022-12-28T21:11:51.213Z,7.06
2022-12-28T21:14:19.505Z,7.23
2022-12-28T21:16:47.668Z,6.93
2022-12-28T21:19:15.881Z,7.05
2022-12-28T21:21:43.966Z,6.59
2022-12-28T21:24:13.591Z,6.46
2022-12-28T21:26:41.800Z,6.41
2022-12-28T21:29:10.027Z,7.01
2022-12-28T21:31:38.299Z,7.07
2022-12-28T21:34:06.410Z,7.07
2022-12-28T21:36:34.613Z,7.11
2022-12-28T21:39:02.713Z,7.03
2022-12-28T21:41:50.629Z,7.20
2022-12-28T21:44:20.941Z,7.13
2022-12-28T21:46:51.091Z,7.08
2022-12-28T21:49:19.762Z,6.84
2022-12-28T21:51:48.735Z,6.77
2022-12-28T21:54:18.824Z,6.62
2022-12-28T21:56:51.700Z,6.90
2022-12-28T21:59:20.168Z,6.71
2022-12-28T22:02:05.962Z,6.54
2022-12-28T22:04:54.397Z,6.37
2022-12-28T22:07:26.745Z,6.39
2022-12-28T22:10:12.293Z,6.07
2022-12-28T22:12:41.974Z,6.24
2022-12-28T22:15:29.992Z,6.21
2022-12-28T22:18:00.125Z,6.35
2022-12-28T22:20:29.553Z,6.51
2022-12-28T22:22:59.589Z,6.47
2022-12-28T22:25:28.812Z,6.41
2022-12-28T22:27:58.649Z,6.65
2022-12-28T22:30:27.431Z,6.57
2022-12-28T22:32:55.952Z,6.55
2022-12-28T22:35:24.586Z,6.48
2022-12-28T22:37:52.684Z,6.69
2022-12-28T22:40:20.812Z,6.59
2022-12-28T22:42:50.704Z,6.40
2022-12-28T22:45:21.806Z,6.51
2022-12-28T22:47:50.534Z,6.69
2022-12-28T22:50:19.682Z,6.40
2022-12-28T22:52:48.296Z,6.54
2022-12-28T22:55:16.548Z,6.67
2022-12-28T22:57:45.141Z,6.33
2022-12-28T23:00:15.369Z,6.46
2022-12-28T23:02:46.086Z,6.53
2022-12-28T23:05:14.396Z,5.96
2022-12-28T23:07:42.503Z,6.66
2022-12-28T23:10:11.426Z,6.63
2022-12-28T23:12:39.579Z,6.48
2022-12-28T23:15:18.673Z,6.53
2022-12-28T23:17:50.156Z,6.93
2022-12-28T23:20:36.152Z,6.62
2022-12-28T23:23:22.055Z,6.89
2022-12-28T23:26:07.871Z,6.69
2022-12-28T23:28:37.055Z,6.95
2022-12-28T23:31:05.828Z,7.15
2022-12-28T23:33:36.692Z,6.82
2022-12-28T23:36:06.989Z,6.84
2022-12-28T23:38:35.473Z,6.80
2022-12-28T23:41:24.714Z,6.51
2022-12-28T23:43:52.908Z,6.82
2022-12-28T23:46:21.081Z,6.95
2022-12-28T23:48:50.667Z,6.99
2022-12-28T23:51:18.784Z,6.94
2022-12-28T23:53:46.832Z,6.87
2022-12-28T23:56:14.934Z,7.06
2022-12-28T23:58:43.098Z,6.87
